Time;durP1;ratioP1;P1;durP2;ratioP2;P2;SDS_P1;SDS_P2;PMS_P1;PMS_P2;Temp;Humidity;BMP_temperature;BMP_pressure;BME280_temperature;BME280_humidity;BME280_pressure;Samples;Min_cycle;Max_cycle;Signal;HPM_P1;HPM_P2
2022/05/29 00:01:17;;;;;;;9.63;3.80;;;;;;;22.10;63.05;100181.84;5011958;28;20423;-88
2022/05/29 00:03:43;;;;;;;12.18;3.50;;;;;;;21.99;63.29;100166.03;4994223;28;20037;-88
2022/05/29 00:06:10;;;;;;;7.05;3.20;;;;;;;22.01;63.48;100183.09;5011481;28;20030;-87
2022/05/29 00:08:39;;;;;;;5.55;3.15;;;;;;;21.97;63.71;100192.78;5011688;28;20127;-87
2022/05/29 00:11:07;;;;;;;7.05;3.38;;;;;;;21.95;64.00;100190.28;5012155;28;20026;-87
2022/05/29 00:13:33;;;;;;;8.45;3.53;;;;;;;21.92;64.39;100184.38;5011919;28;20026;-86
2022/05/29 00:15:59;;;;;;;7.55;3.97;;;;;;;21.90;65.00;100186.44;5011514;28;20036;-89
2022/05/29 00:18:25;;;;;;;8.55;3.38;;;;;;;21.85;65.87;100176.09;4994399;28;20125;-87
2022/05/29 00:20:54;;;;;;;9.95;4.00;;;;;;;21.78;66.59;100183.47;4978288;28;20169;-87
2022/05/29 00:23:20;;;;;;;5.70;3.60;;;;;;;21.66;66.66;100177.75;4993962;28;20030;-87
2022/05/29 00:25:50;;;;;;;12.02;5.40;;;;;;;21.69;66.89;100176.50;4994159;28;20026;-87
2022/05/29 00:28:16;;;;;;;19.00;4.43;;;;;;;21.69;67.23;100163.66;4994745;28;20567;-87
2022/05/29 00:30:42;;;;;;;12.63;3.88;;;;;;;21.67;67.53;100164.91;5011862;28;20172;-87
2022/05/29 00:33:08;;;;;;;13.15;4.07;;;;;;;21.57;67.80;100159.84;4994575;28;20113;-87
2022/05/29 00:35:37;;;;;;;5.88;3.58;;;;;;;21.51;68.04;100159.81;4995556;28;20060;-87
2022/05/29 00:38:04;;;;;;;7.22;3.92;;;;;;;21.52;68.38;100156.03;5013628;28;20112;-87
2022/05/29 00:40:45;;;;;;;12.30;4.47;;;;;;;21.44;68.53;100157.06;5012607;28;20022;-87
2022/05/29 00:43:11;;;;;;;7.28;4.10;;;;;;;21.33;68.67;100156.81;5012899;28;20044;-87
2022/05/29 00:45:58;;;;;;;6.35;4.03;;;;;;;21.33;69.18;100163.16;4998111;28;20037;-87
2022/05/29 00:48:25;;;;;;;9.20;4.18;;;;;;;21.29;69.16;100172.81;5015052;28;20054;-87
2022/05/29 00:50:54;;;;;;;7.15;3.60;;;;;;;21.22;69.27;100163.75;5015127;28;20049;-88
2022/05/29 00:53:22;;;;;;;13.70;4.22;;;;;;;21.20;69.61;100163.09;4997859;28;20049;-87
2022/05/29 00:55:53;;;;;;;14.35;3.83;;;;;;;21.16;69.87;100168.13;5015299;28;20021;-88
2022/05/29 00:58:21;;;;;;;13.70;4.95;;;;;;;21.13;69.62;100164.94;5015524;28;20026;-88
2022/05/29 01:00:48;;;;;;;11.70;4.85;;;;;;;21.15;69.52;100165.59;5015253;28;20029;-87
2022/05/29 01:03:13;;;;;;;12.73;4.25;;;;;;;21.11;69.45;100164.31;4997556;28;20479;-88
2022/05/29 01:05:39;;;;;;;11.30;4.35;;;;;;;21.06;69.27;100150.38;4997488;28;20033;-87
2022/05/29 01:08:26;;;;;;;12.40;4.93;;;;;;;21.07;68.92;100160.25;4997489;28;20045;-88
2022/05/29 01:11:09;;;;;;;11.77;4.60;;;;;;;21.03;68.81;100159.00;4997466;28;20112;-88
2022/05/29 01:13:49;;;;;;;9.50;4.00;;;;;;;20.92;69.14;100159.56;5015090;28;20454;-88
2022/05/29 01:16:51;;;;;;;6.93;3.97;;;;;;;20.89;69.12;100149.03;4997154;28;20502;-87
2022/05/29 01:19:41;;;;;;;10.93;4.82;;;;;;;20.86;69.13;100149.44;4997195;28;20447;-88
2022/05/29 01:22:29;;;;;;;19.08;5.72;;;;;;;20.81;69.14;100147.31;4997519;28;20030;-86
2022/05/29 01:25:10;;;;;;;10.75;3.70;;;;;;;20.79;69.29;100162.25;5015019;28;20061;-87
2022/05/29 01:27:53;;;;;;;7.82;4.45;;;;;;;20.83;69.19;100164.34;5015354;28;20034;-87
2022/05/29 01:30:25;;;;;;;8.07;4.32;;;;;;;20.78;69.04;100164.13;5015035;28;20029;-87
2022/05/29 01:32:53;;;;;;;9.93;4.40;;;;;;;20.77;69.09;100172.53;5015169;28;20088;-87
2022/05/29 01:35:26;;;;;;;8.07;4.38;;;;;;;20.83;68.87;100193.56;4997416;28;20072;-88
2022/05/29 01:38:02;;;;;;;7.18;4.97;;;;;;;20.71;69.20;100181.53;4997701;28;20045;-88
2022/05/29 01:40:42;;;;;;;13.38;4.40;;;;;;;20.86;69.13;100198.66;5014438;28;20033;-88
2022/05/29 01:43:24;;;;;;;9.30;4.85;;;;;;;20.91;69.22;100190.69;5014566;28;20030;-88
2022/05/29 01:45:55;;;;;;;12.95;5.30;;;;;;;20.94;69.18;100191.16;4998163;28;20091;-88
2022/05/29 01:48:56;;;;;;;6.72;4.70;;;;;;;21.01;69.11;100196.63;5014289;28;20061;-88
2022/05/29 01:51:36;;;;;;;8.00;5.00;;;;;;;21.07;69.06;100196.66;5001371;28;20053;-88
2022/05/29 01:54:14;;;;;;;13.60;7.25;;;;;;;21.11;69.28;100206.19;5014646;28;20026;-88
2022/05/29 01:57:17;;;;;;;12.93;5.93;;;;;;;21.07;69.72;100196.66;5013635;28;20022;-87
2022/05/29 01:59:49;;;;;;;6.05;4.95;;;;;;;21.15;70.00;100212.09;4986245;28;20419;-88
2022/05/29 02:02:21;;;;;;;9.90;5.90;;;;;;;21.18;70.40;100217.16;5014839;28;20112;-87
2022/05/29 02:04:52;;;;;;;14.70;7.13;;;;;;;21.13;71.11;100205.97;4997087;28;20113;-88
2022/05/29 02:10:37;;;;;;;9.13;6.95;;;;;;;21.07;72.38;100198.53;5014394;28;20168;-88
2022/05/29 02:13:10;;;;;;;27.17;10.60;;;;;;;21.01;72.94;100202.09;5014217;28;20042;-88
2022/05/29 02:16:11;;;;;;;15.32;8.60;;;;;;;21.01;73.29;100196.63;5014699;28;20030;-87
2022/05/29 02:19:06;;;;;;;16.17;9.27;;;;;;;20.91;74.00;100213.41;5014388;28;20426;-88
2022/05/29 02:21:41;;;;;;;22.80;9.85;;;;;;;20.88;74.23;100207.50;4944091;28;20439;-87
2022/05/29 02:24:12;;;;;;;18.92;9.88;;;;;;;20.84;74.56;100195.28;5014181;28;20034;-87
2022/05/29 02:26:43;;;;;;;16.55;10.25;;;;;;;20.84;74.73;100196.13;5013849;28;20479;-88
2022/05/29 02:29:11;;;;;;;17.23;11.55;;;;;;;20.86;74.99;100183.09;5013644;28;20038;-87
2022/05/29 02:31:48;;;;;;;13.52;9.57;;;;;;;20.88;74.96;100186.50;4996455;28;20040;-87
2022/05/29 02:34:18;;;;;;;17.80;11.60;;;;;;;20.76;75.76;100184.50;5013913;28;20489;-87
2022/05/29 02:36:57;;;;;;;14.73;12.60;;;;;;;20.82;75.90;100189.19;5013846;28;20018;-88
2022/05/29 02:39:38;;;;;;;17.98;12.05;;;;;;;20.60;76.67;100177.47;4996218;28;20061;-88
2022/05/29 02:42:13;;;;;;;21.52;13.95;;;;;;;20.54;77.48;100178.28;5013293;28;20087;-87
2022/05/29 02:44:52;;;;;;;18.60;15.93;;;;;;;20.34;78.84;100182.75;5013786;28;20030;-87
2022/05/29 02:47:25;;;;;;;27.63;15.82;;;;;;;20.15;80.02;100189.69;5013057;28;20125;-88
2022/05/29 02:50:19;;;;;;;21.05;15.70;;;;;;;20.13;80.55;100186.31;4995451;28;20048;-88
2022/05/29 02:52:45;;;;;;;26.45;17.70;;;;;;;20.17;80.79;100187.63;5013359;28;20033;-87
2022/05/29 02:55:11;;;;;;;24.40;17.23;;;;;;;20.14;80.98;100190.75;5012992;28;20053;-88
2022/05/29 02:57:37;;;;;;;25.50;18.15;;;;;;;20.23;80.94;100202.38;4996188;28;20137;-88
2022/05/29 03:00:13;;;;;;;24.55;17.45;;;;;;;20.33;80.61;100209.25;4996101;28;20121;-87
2022/05/29 03:02:50;;;;;;;23.13;16.38;;;;;;;20.39;80.41;100207.59;4996407;28;20492;-86
2022/05/29 03:05:30;;;;;;;25.67;17.23;;;;;;;20.35;80.34;100200.81;5013132;28;20026;-87
2022/05/29 03:08:27;;;;;;;24.10;16.90;;;;;;;20.48;79.89;100207.25;5013058;28;20030;-87
2022/05/29 03:11:05;;;;;;;23.60;16.67;;;;;;;20.58;79.24;100213.19;4992752;28;20487;-87
2022/05/29 03:13:39;;;;;;;19.95;15.27;;;;;;;20.56;79.24;100219.91;5012653;28;20407;-87
2022/05/29 03:16:28;;;;;;;19.20;15.80;;;;;;;20.54;78.95;100211.91;5013235;28;20033;-87
2022/05/29 03:19:04;;;;;;;22.73;15.68;;;;;;;20.54;79.11;100225.59;4995076;28;20034;-88
2022/05/29 03:22:28;;;;;;;24.90;14.18;;;;;;;20.72;78.86;100235.16;5013018;28;20028;-87
2022/05/29 03:25:01;;;;;;;18.50;15.18;;;;;;;20.74;78.26;100227.59;4904758;29;20163;-89
2022/05/29 03:27:36;;;;;;;21.00;14.65;;;;;;;20.88;78.06;100240.31;4961842;28;20069;-88
2022/05/29 03:30:05;;;;;;;19.08;14.70;;;;;;;20.96;77.45;100248.34;5015014;28;20476;-89
2022/05/29 03:32:31;;;;;;;21.58;13.98;;;;;;;21.04;77.37;100240.81;4995057;28;20416;-89
2022/05/29 03:34:58;;;;;;;21.48;14.18;;;;;;;21.13;77.12;100227.84;4995660;28;20034;-86
2022/05/29 03:37:24;;;;;;;23.48;14.40;;;;;;;21.14;77.16;100235.00;5013215;28;20026;-87
2022/05/29 03:39:49;;;;;;;26.20;14.43;;;;;;;21.13;76.94;100225.09;5012382;28;20034;-87
2022/05/29 03:42:16;;;;;;;17.73;13.80;;;;;;;21.20;76.15;100228.72;5012365;28;20094;-87
2022/05/29 03:44:41;;;;;;;21.45;14.00;;;;;;;21.10;76.58;100231.00;4995063;28;20504;-87
2022/05/29 03:47:07;;;;;;;30.33;13.73;;;;;;;21.05;76.65;100238.94;4994538;28;20042;-88
2022/05/29 03:49:32;;;;;;;18.60;12.90;;;;;;;20.97;77.05;100264.56;5011861;28;20038;-88
2022/05/29 03:51:58;;;;;;;30.00;14.70;;;;;;;21.10;76.88;100269.28;5012182;28;20029;-88
2022/05/29 03:54:24;;;;;;;21.60;12.80;;;;;;;21.22;76.03;100264.97;5012232;28;20415;-88
2022/05/29 03:56:49;;;;;;;17.55;12.07;;;;;;;21.34;75.37;100259.75;5012176;28;20033;-86
2022/05/29 03:59:15;;;;;;;26.60;12.57;;;;;;;21.34;74.88;100257.84;5012204;28;20484;-88
2022/05/29 04:01:40;;;;;;;20.42;11.73;;;;;;;21.48;74.34;100245.91;4978075;28;20179;-87
2022/05/29 04:04:06;;;;;;;14.70;12.32;;;;;;;21.59;73.64;100249.94;4994037;28;20026;-88
2022/05/29 04:06:34;;;;;;;17.27;12.48;;;;;;;21.68;72.81;100255.03;4994099;28;20490;-87
2022/05/29 04:12:04;;;;;;;17.63;10.57;;;;;;;21.79;72.17;100278.22;5012425;28;20036;-87
2022/05/29 04:14:31;;;;;;;25.08;12.27;;;;;;;21.82;71.69;100274.25;4997332;28;20408;-88
2022/05/29 04:16:57;;;;;;;13.70;9.50;;;;;;;21.85;71.32;100279.31;5011712;28;20534;-87
2022/05/29 04:19:22;;;;;;;13.30;10.25;;;;;;;21.80;70.84;100279.09;5013899;28;20032;-87
2022/05/29 04:21:49;;;;;;;13.82;9.35;;;;;;;21.80;70.55;100295.50;5015951;28;20388;-87
2022/05/29 04:24:21;;;;;;;13.05;8.15;;;;;;;21.70;69.40;100290.41;4998486;28;20034;-88
2022/05/29 04:26:47;;;;;;;;;;;;;;;21.68;67.67;100303.44;4998786;28;20169;-86
2022/05/29 04:29:14;;;;;;;16.63;7.40;;;;;;;21.68;67.61;100300.72;4998526;28;19928;-88
2022/05/29 04:32:59;;;;;;;17.77;8.23;;;;;;;21.73;67.51;100317.38;5016137;28;20458;-87
2022/05/29 04:34:25;;;;;;;11.40;7.07;;;;;;;21.71;67.09;100327.72;5016029;28;20080;-87
2022/05/29 04:36:51;;;;;;;18.75;7.07;;;;;;;21.65;66.58;100320.28;4983021;28;20476;-88
2022/05/29 04:39:16;;;;;;;13.90;7.53;;;;;;;21.76;66.32;100335.28;4999263;28;20021;-87
2022/05/29 04:41:41;;;;;;;17.48;6.40;;;;;;;21.76;65.33;100327.94;4998780;28;20026;-87
2022/05/29 04:44:07;;;;;;;12.15;6.13;;;;;;;21.78;66.13;100333.19;5015542;28;20471;-86
2022/05/29 04:46:32;;;;;;;11.07;6.35;;;;;;;21.77;65.27;100326.88;5015760;28;20472;-87
2022/05/29 04:48:58;;;;;;;7.78;5.68;;;;;;;21.75;64.81;100325.38;5015852;28;20050;-86
2022/05/29 04:51:23;;;;;;;10.88;5.57;;;;;;;21.71;63.58;100336.75;4997882;28;20030;-87
2022/05/29 04:53:49;;;;;;;6.90;4.95;;;;;;;21.67;63.60;100330.00;5015721;28;20108;-87
2022/05/29 04:56:14;;;;;;;9.77;5.28;;;;;;;21.74;63.75;100342.88;5015722;28;20121;-87
2022/05/29 04:58:39;;;;;;;6.32;4.75;;;;;;;21.74;63.24;100348.34;5014988;28;20030;-87
2022/05/29 05:01:05;;;;;;;8.50;4.53;;;;;;;21.89;62.99;100349.06;4997880;28;20083;-87
2022/05/29 05:03:31;;;;;;;11.07;4.38;;;;;;;21.92;62.60;100354.16;4998561;28;20030;-87
2022/05/29 05:05:57;;;;;;;7.03;3.78;;;;;;;21.94;61.04;100346.56;5015646;28;20065;-87
2022/05/29 05:08:24;;;;;;;7.63;4.43;;;;;;;21.97;61.13;100351.63;4997953;28;20034;-87
2022/05/29 05:10:49;;;;;;;8.02;3.83;;;;;;;22.01;61.47;100350.16;5015956;28;20018;-88
2022/05/29 05:13:15;;;;;;;9.45;4.53;;;;;;;22.03;60.94;100345.31;5015878;28;20032;-88
2022/05/29 05:15:41;;;;;;;8.77;4.25;;;;;;;22.05;61.66;100345.94;5015772;28;20026;-87
2022/05/29 05:18:08;;;;;;;8.45;4.68;;;;;;;22.03;61.79;100351.66;5015654;28;20407;-87
2022/05/29 05:20:34;;;;;;;4.80;3.30;;;;;;;22.13;61.67;100367.69;5015479;28;20021;-88
2022/05/29 05:23:00;;;;;;;6.75;4.88;;;;;;;22.21;61.65;100383.94;4998209;28;20519;-87
2022/05/29 05:25:26;;;;;;;12.80;4.28;;;;;;;22.28;61.52;100375.75;5014360;28;20057;-87
2022/05/29 05:27:53;;;;;;;5.20;4.07;;;;;;;22.35;61.01;100372.00;5014659;28;20526;-87
2022/05/29 05:30:19;;;;;;;5.22;3.88;;;;;;;22.52;60.64;100373.28;5014545;28;20097;-87
2022/05/29 05:32:45;;;;;;;4.60;4.05;;;;;;;22.60;60.65;100367.59;5014100;28;20575;-87
2022/05/29 05:35:10;;;;;;;7.68;4.28;;;;;;;22.69;60.66;100366.34;5014696;28;20104;-87
2022/05/29 05:37:37;;;;;;;16.08;4.50;;;;;;;22.84;60.22;100359.84;4996812;28;20396;-88
2022/05/29 05:40:06;;;;;;;7.18;3.60;;;;;;;22.99;60.38;100363.22;5014615;28;20083;-88
2022/05/29 05:42:32;;;;;;;4.40;3.60;;;;;;;23.15;60.57;100362.75;5014397;28;20029;-87
2022/05/29 05:44:57;;;;;;;4.45;3.70;;;;;;;23.31;60.09;100362.31;4996651;28;20034;-86
2022/05/29 05:47:23;;;;;;;11.10;3.72;;;;;;;23.51;59.99;100373.31;4996322;28;20041;-88
2022/05/29 05:49:49;;;;;;;5.47;3.47;;;;;;;23.57;59.27;100367.81;4996850;28;20084;-88
2022/05/29 05:52:16;;;;;;;13.02;3.72;;;;;;;23.63;59.54;100377.94;5014179;28;20034;-87
2022/05/29 05:54:42;;;;;;;10.57;3.70;;;;;;;23.61;59.68;100385.50;4996155;28;20092;-87
2022/05/29 05:57:07;;;;;;;5.97;3.92;;;;;;;23.68;59.54;100386.34;4996945;28;20026;-88
2022/05/29 05:59:38;;;;;;;9.52;4.15;;;;;;;23.81;59.04;100411.03;5014001;28;20032;-87
2022/05/29 06:02:05;;;;;;;11.55;3.53;;;;;;;23.81;58.67;100411.03;5014221;28;20518;-88
2022/05/29 06:04:31;;;;;;;10.77;3.70;;;;;;;23.84;58.92;100407.88;5014291;28;20033;-88
2022/05/29 06:06:56;;;;;;;14.40;5.10;;;;;;;23.89;59.17;100403.59;4996765;28;20420;-88
2022/05/29 06:09:23;;;;;;;9.65;3.33;;;;;;;23.95;58.80;100392.59;5000167;28;20427;-88
2022/05/29 06:11:48;;;;;;;6.85;3.05;;;;;;;24.08;58.49;100380.72;5015311;28;20109;-89
2022/05/29 06:14:14;;;;;;;4.47;3.35;;;;;;;24.16;58.36;100388.72;4998756;28;20083;-86
2022/05/29 06:16:40;;;;;;;8.55;3.58;;;;;;;24.20;58.73;100385.34;5021858;28;20503;-86
2022/05/29 06:19:06;;;;;;;4.28;2.95;;;;;;;24.37;58.16;100397.50;5024541;28;20030;-87
2022/05/29 06:21:32;;;;;;;11.55;5.03;;;;;;;24.43;57.98;100392.19;5025316;28;20026;-87
2022/05/29 06:23:58;;;;;;;10.77;3.83;;;;;;;24.55;57.84;100395.94;5019357;28;20036;-86
2022/05/29 06:26:23;;;;;;;17.65;4.70;;;;;;;24.64;57.79;100395.44;5020020;28;20109;-86
2022/05/29 06:28:49;;;;;;;9.35;3.28;;;;;;;24.69;57.04;100400.25;5025489;28;20022;-86
2022/05/29 06:31:15;;;;;;;12.75;3.10;;;;;;;24.64;57.13;100391.84;5024748;28;20026;-86
2022/05/29 06:33:41;;;;;;;11.93;2.78;;;;;;;24.76;57.39;100410.16;5018933;28;20022;-86
2022/05/29 06:36:12;;;;;;;5.22;2.85;;;;;;;24.78;57.47;100408.03;4996556;28;20470;-87
2022/05/29 06:38:38;;;;;;;9.27;3.53;;;;;;;24.67;57.08;100380.41;4995715;28;20566;-87
2022/05/29 06:41:09;;;;;;;9.02;3.30;;;;;;;24.79;57.34;100384.13;5013550;28;20108;-89
2022/05/29 06:43:35;;;;;;;7.95;2.13;;;;;;;24.78;56.74;100374.16;5015548;28;20032;-86
2022/05/29 06:46:02;;;;;;;6.07;2.63;;;;;;;24.74;56.95;100379.28;5014838;28;20049;-87
2022/05/29 06:48:28;;;;;;;9.73;3.60;;;;;;;24.75;57.18;100371.88;5014239;28;20042;-86
2022/05/29 06:50:54;;;;;;;13.32;3.05;;;;;;;24.80;56.99;100385.78;4996751;28;20152;-86
2022/05/29 06:53:20;;;;;;;12.68;2.58;;;;;;;24.78;56.82;100372.28;5013417;28;20031;-87
2022/05/29 06:55:53;;;;;;;11.57;3.55;;;;;;;24.82;56.78;100383.72;4995791;28;20448;-88
2022/05/29 06:58:19;;;;;;;8.18;3.53;;;;;;;24.77;57.23;100384.31;5013762;28;20026;-86
2022/05/29 07:08:57;;;;;;;4.22;2.67;;;;;;;24.90;57.32;100348.50;5013782;28;20037;-86
2022/05/29 07:11:26;;;;;;;15.73;3.95;;;;;;;25.06;57.35;100346.25;5012888;28;20022;-87
2022/05/29 07:13:54;;;;;;;12.27;2.92;;;;;;;25.19;56.56;100329.63;5012946;28;20025;-87
2022/05/29 07:16:20;;;;;;;23.80;4.18;;;;;;;25.22;56.32;100319.00;4995054;28;20026;-85
2022/05/29 07:18:45;;;;;;;6.85;3.80;;;;;;;25.39;55.79;100336.59;4995473;28;20472;-88
2022/05/29 07:21:10;;;;;;;9.10;3.30;;;;;;;25.37;55.42;100326.88;4995356;28;20029;-86
2022/05/29 07:23:36;;;;;;;10.77;4.47;;;;;;;25.43;55.83;100324.06;5012584;28;20022;-86
2022/05/29 07:26:03;;;;;;;9.40;2.95;;;;;;;25.46;55.49;100331.00;4995622;28;20034;-87
2022/05/29 07:28:30;;;;;;;11.98;3.80;;;;;;;25.34;55.61;100313.56;5012881;28;20048;-86
2022/05/29 07:30:56;;;;;;;14.05;4.07;;;;;;;25.27;55.53;100304.53;5012883;28;20034;-86
2022/05/29 07:33:23;;;;;;;6.15;3.60;;;;;;;25.27;55.67;100285.25;5012574;28;20029;-86
2022/05/29 07:35:48;;;;;;;6.55;3.55;;;;;;;25.22;56.18;100274.09;4995204;28;20033;-86
2022/05/29 07:38:14;;;;;;;12.25;3.75;;;;;;;25.17;55.91;100272.03;5012421;28;20028;-87
2022/05/29 07:40:39;;;;;;;7.00;3.78;;;;;;;25.05;56.59;100256.50;5012371;28;20484;-88
2022/05/29 07:43:22;;;;;;;6.85;3.95;;;;;;;25.10;56.17;100253.91;5013116;28;20034;-89
2022/05/29 07:45:49;;;;;;;10.80;3.88;;;;;;;25.15;55.53;100234.78;4982667;28;20124;-87
2022/05/29 07:48:20;;;;;;;6.47;3.95;;;;;;;24.78;56.09;100193.47;4995506;28;20050;-87
2022/05/29 07:50:46;;;;;;;15.63;3.90;;;;;;;24.87;56.73;100188.53;5009744;28;20097;-87
2022/05/29 07:53:13;;;;;;;14.35;3.60;;;;;;;24.78;58.03;100168.72;5012661;28;20056;-87
2022/05/29 07:55:39;;;;;;;10.25;3.60;;;;;;;24.64;58.97;100155.31;4998427;28;20172;-88
2022/05/29 07:58:07;;;;;;;11.30;3.80;;;;;;;24.60;58.99;100165.94;4995591;28;20022;-86
2022/05/29 08:00:34;;;;;;;14.73;3.72;;;;;;;24.63;58.10;100172.88;5012284;28;20104;-87
2022/05/29 08:03:01;;;;;;;10.07;3.42;;;;;;;24.30;57.97;100154.81;4995629;28;20116;-86
2022/05/29 08:05:29;;;;;;;16.05;5.10;;;;;;;24.21;58.15;100133.34;5012317;28;20026;-86
2022/05/29 08:07:55;;;;;;;18.42;4.38;;;;;;;24.02;58.33;100134.31;4994831;28;20435;-88
2022/05/29 08:10:22;;;;;;;10.05;3.72;;;;;;;24.06;59.45;100163.03;5012198;28;20022;-87
2022/05/29 08:12:48;;;;;;;12.02;4.18;;;;;;;24.05;60.67;100188.81;5011941;28;20030;-86
2022/05/29 08:15:14;;;;;;;8.77;3.90;;;;;;;24.15;61.73;100184.53;5012411;28;20037;-87
2022/05/29 08:17:40;;;;;;;10.45;4.32;;;;;;;24.16;62.63;100163.38;4994630;28;20044;-87
2022/05/29 08:20:08;;;;;;;7.07;3.88;;;;;;;24.11;62.48;100175.06;5012119;28;20476;-88
2022/05/29 08:22:34;;;;;;;16.20;4.25;;;;;;;24.01;62.09;100176.56;4994929;28;20034;-87
2022/05/29 08:30:43;;;;;;;9.68;4.68;;;;;;;23.94;63.25;100187.63;5012074;28;20036;-87
2022/05/29 08:33:13;;;;;;;20.00;4.53;;;;;;;23.75;64.37;100183.94;5011846;28;20026;-87
2022/05/29 08:35:43;;;;;;;19.63;5.63;;;;;;;23.70;64.93;100189.25;5011770;28;20030;-87
2022/05/29 08:38:10;;;;;;;9.10;4.32;;;;;;;23.73;65.22;100191.53;5011653;28;20025;-86
2022/05/29 08:40:42;;;;;;;14.20;5.32;;;;;;;23.74;65.27;100206.97;5011824;28;20203;-87
2022/05/29 08:43:12;;;;;;;11.40;4.75;;;;;;;23.52;65.86;100193.78;5012294;28;20029;-87
2022/05/29 08:45:40;;;;;;;14.52;5.57;;;;;;;23.71;65.40;100212.91;4993927;28;20049;-87
2022/05/29 08:48:06;;;;;;;9.90;4.00;;;;;;;23.66;65.19;100217.38;4995262;28;20057;-86
2022/05/29 08:50:48;;;;;;;11.82;4.85;;;;;;;23.57;65.76;100241.50;4980174;28;20571;-86
2022/05/29 08:53:35;;;;;;;15.15;4.18;;;;;;;23.45;65.02;100259.72;5009855;28;20026;-86
2022/05/29 08:56:27;;;;;;;15.88;5.07;;;;;;;23.69;65.19;100272.72;5011558;28;20080;-86
2022/05/29 08:59:12;;;;;;;17.50;5.18;;;;;;;23.78;64.76;100263.16;5007007;28;20030;-87
2022/05/29 09:02:01;;;;;;;17.50;6.03;;;;;;;23.69;65.34;100247.16;5011745;28;20074;-87
2022/05/29 09:04:36;;;;;;;20.55;4.85;;;;;;;23.66;65.93;100242.94;5013949;28;20030;-86
2022/05/29 09:07:07;;;;;;;13.98;5.30;;;;;;;23.54;66.16;100233.72;5001378;28;20104;-87
2022/05/29 09:09:47;;;;;;;18.13;6.40;;;;;;;23.53;66.07;100256.72;5014823;28;20046;-88
2022/05/29 09:12:19;;;;;;;16.45;6.50;;;;;;;23.58;65.53;100253.31;5015234;28;20088;-87
2022/05/29 09:15:17;;;;;;;10.48;5.30;;;;;;;23.52;65.29;100254.19;4997530;28;20038;-87
2022/05/29 09:17:50;;;;;;;17.33;5.45;;;;;;;23.53;65.66;100248.50;5005932;28;20533;-89
2022/05/29 09:20:20;;;;;;;18.25;6.72;;;;;;;23.43;65.54;100256.34;5019736;28;20029;-88
2022/05/29 09:22:47;;;;;;;16.67;5.13;;;;;;;23.47;65.88;100260.34;5015342;28;20506;-85
2022/05/29 09:25:33;;;;;;;22.33;5.80;;;;;;;23.60;65.48;100285.00;4997314;28;20033;-86
2022/05/29 09:28:09;;;;;;;14.75;7.55;;;;;;;23.61;64.70;100289.41;4984853;28;20407;-88
2022/05/29 09:30:35;;;;;;;33.10;6.78;;;;;;;23.69;64.91;100289.19;5016134;28;20473;-87
2022/05/29 09:33:25;;;;;;;15.88;6.80;;;;;;;23.70;64.96;100290.84;5015434;28;20101;-87
2022/05/29 09:36:03;;;;;;;23.55;6.40;;;;;;;23.77;64.23;100297.16;5014998;28;20030;-86
2022/05/29 09:38:39;;;;;;;12.65;4.47;;;;;;;23.74;62.45;100286.63;5017289;28;20022;-87
2022/05/29 09:41:16;;;;;;;10.60;4.40;;;;;;;23.71;62.74;100300.78;5016867;28;20105;-88
2022/05/29 09:44:04;;;;;;;10.93;4.47;;;;;;;23.70;61.13;100312.81;4997115;28;20053;-87
2022/05/29 09:46:32;;;;;;;18.70;5.75;;;;;;;23.78;61.50;100320.84;5015220;28;20026;-87
2022/05/29 09:51:58;;;;;;;12.73;4.93;;;;;;;23.95;60.81;100323.06;5019796;28;20040;-86
2022/05/29 09:54:34;;;;;;;11.35;5.28;;;;;;;23.83;59.31;100318.25;4967593;28;20065;-87
2022/05/29 09:57:15;;;;;;;15.77;5.00;;;;;;;23.98;59.13;100317.97;5014172;28;20060;-87
2022/05/29 09:59:44;;;;;;;13.47;5.70;;;;;;;24.02;59.51;100321.13;5014088;28;20030;-87
2022/05/29 10:02:27;;;;;;;9.98;4.53;;;;;;;24.22;59.51;100324.63;5013759;28;20037;-86
2022/05/29 10:04:57;;;;;;;17.35;5.60;;;;;;;24.33;59.46;100313.78;4997409;28;20029;-87
2022/05/29 10:07:42;;;;;;;15.02;5.13;;;;;;;24.52;59.27;100322.13;5017442;28;20040;-86
2022/05/29 10:10:13;;;;;;;12.50;5.13;;;;;;;24.66;59.52;100330.03;5016099;28;20068;-86
2022/05/29 10:12:47;;;;;;;15.27;5.88;;;;;;;24.59;60.50;100328.41;4998052;28;20096;-87
2022/05/29 10:15:24;;;;;;;25.25;5.90;;;;;;;24.67;60.06;100337.25;5015049;28;20034;-87
2022/05/29 10:17:50;;;;;;;14.55;5.88;;;;;;;24.65;59.95;100339.34;5013675;28;20036;-86
2022/05/29 10:20:34;;;;;;;13.63;5.82;;;;;;;24.97;59.69;100331.94;5014401;28;20030;-89
2022/05/29 10:23:09;;;;;;;11.65;5.93;;;;;;;24.93;59.17;100333.44;5014271;28;20034;-88
2022/05/29 10:25:42;;;;;;;15.40;5.57;;;;;;;24.94;58.60;100337.03;5014708;28;20037;-87
2022/05/29 10:28:15;;;;;;;17.92;5.88;;;;;;;25.04;58.94;100334.63;5014900;28;20084;-87
2022/05/29 10:30:58;;;;;;;12.30;5.93;;;;;;;25.13;59.09;100336.88;5014377;28;20137;-87
2022/05/29 10:33:26;;;;;;;;;;;;;;;25.07;57.72;100336.94;5014700;28;20488;-88
2022/05/29 10:35:58;;;;;;;13.38;5.35;;;;;;;24.97;58.33;100320.09;5013906;28;19916;-87
2022/05/29 10:38:29;;;;;;;18.05;5.82;;;;;;;25.16;58.43;100330.06;4997571;28;20033;-87
2022/05/29 10:40:57;;;;;;;7.43;4.75;;;;;;;25.09;57.07;100315.53;5001409;28;20029;-87
2022/05/29 10:43:34;;;;;;;13.68;5.20;;;;;;;25.05;58.03;100309.63;5014762;28;20034;-88
2022/05/29 10:46:36;;;;;;;15.40;6.22;;;;;;;25.09;56.59;100285.25;4997061;28;20026;-88
2022/05/29 10:49:10;;;;;;;8.55;3.90;;;;;;;25.23;55.13;100297.78;5013056;28;20125;-87
2022/05/29 10:51:54;;;;;;;18.63;5.13;;;;;;;25.26;55.70;100292.66;5015357;28;20033;-87
2022/05/29 10:54:35;;;;;;;10.85;4.28;;;;;;;25.24;55.09;100289.31;5017273;28;20514;-87
2022/05/29 10:57:38;;;;;;;47.25;6.72;;;;;;;25.43;55.49;100292.91;5016312;28;20033;-87
2022/05/29 11:00:32;;;;;;;11.85;5.13;;;;;;;25.57;55.41;100280.69;5015216;28;20567;-87
2022/05/29 11:03:21;;;;;;;18.63;4.93;;;;;;;25.66;54.68;100290.31;5014590;28;20048;-87
2022/05/29 11:05:53;;;;;;;14.88;4.07;;;;;;;25.77;53.42;100286.81;5014612;28;20444;-88
2022/05/29 11:08:21;;;;;;;18.90;4.57;;;;;;;25.85;52.83;100275.47;5014009;28;20368;-87
2022/05/29 11:10:50;;;;;;;12.57;5.05;;;;;;;25.71;53.33;100286.91;4996678;28;20022;-86
2022/05/29 11:13:48;;;;;;;15.02;4.82;;;;;;;25.50;53.58;100268.09;5013985;28;20030;-87
2022/05/29 11:16:42;;;;;;;10.82;4.03;;;;;;;25.38;52.58;100259.72;5014163;28;20025;-87
2022/05/29 11:19:13;;;;;;;11.52;4.40;;;;;;;25.33;53.38;100256.81;4996026;28;20037;-86
2022/05/29 11:21:56;;;;;;;11.97;3.87;;;;;;;25.36;53.19;100248.09;5013338;28;20463;-86
2022/05/29 11:24:43;;;;;;;8.50;3.72;;;;;;;25.52;52.29;100246.66;4996355;28;20407;-86
2022/05/29 11:27:37;;;;;;;11.85;3.45;;;;;;;25.47;51.44;100241.84;5013428;28;20084;-87
2022/05/29 11:30:10;;;;;;;11.70;4.05;;;;;;;25.58;51.00;100229.22;5013284;28;20036;-86
2022/05/29 11:32:42;;;;;;;11.57;4.18;;;;;;;25.63;49.73;100232.94;5013467;28;20492;-87
2022/05/29 11:35:19;;;;;;;8.32;4.07;;;;;;;25.63;49.42;100232.94;5013996;28;20030;-86
2022/05/29 11:37:54;;;;;;;13.35;3.83;;;;;;;25.77;49.10;100234.47;4996476;28;20523;-87
2022/05/29 11:40:23;;;;;;;8.30;3.92;;;;;;;25.87;49.20;100217.38;4998199;28;20026;-82
2022/05/29 11:43:23;;;;;;;8.95;3.50;;;;;;;25.93;47.65;100239.28;5015933;28;20084;-80
2022/05/29 11:52:06;;;;;;;17.00;4.57;;;;;;;26.13;52.57;100235.41;5012541;28;20041;-82
2022/05/29 11:54:40;;;;;;;11.63;3.95;;;;;;;26.29;51.81;100226.50;5005232;28;20037;-82
2022/05/29 11:57:46;;;;;;;6.65;3.90;;;;;;;26.42;50.71;100229.06;4994744;28;20064;-81
2022/05/29 12:00:27;;;;;;;18.10;5.10;;;;;;;26.27;50.76;100231.41;5011419;28;20061;-82
2022/05/29 12:02:58;;;;;;;7.53;3.67;;;;;;;26.15;50.04;100224.97;4994124;28;20407;-82
2022/05/29 12:05:46;;;;;;;17.45;4.50;;;;;;;26.07;50.03;100212.41;5011692;28;20088;-83
2022/05/29 12:08:23;;;;;;;10.18;3.67;;;;;;;26.16;49.88;100207.41;5012361;28;20036;-83
2022/05/29 12:11:00;;;;;;;12.27;3.75;;;;;;;26.38;49.51;100195.59;5011880;28;20092;-83
2022/05/29 12:13:36;;;;;;;10.65;3.38;;;;;;;26.30;48.35;100195.91;4994080;28;20038;-81